sensor_id;sensor_type;location;lat;lon;timestamp;P1;durP1;ratioP1;P2;durP2;ratioP2
62268;SDS011;56517;51.634;5.566;2023-03-21T00:04:35;21.83;;;13.13;;
62268;SDS011;56517;51.634;5.566;2023-03-21T00:09:55;25.13;;;13.15;;
62268;SDS011;56517;51.634;5.566;2023-03-21T00:15:16;29.88;;;14.60;;
62268;SDS011;56517;51.634;5.566;2023-03-21T00:20:38;30.02;;;13.88;;
62268;SDS011;56517;51.634;5.566;2023-03-21T00:25:59;33.83;;;16.05;;
62268;SDS011;56517;51.634;5.566;2023-03-21T00:31:20;32.03;;;14.65;;
62268;SDS011;56517;51.634;5.566;2023-03-21T00:36:41;29.00;;;14.70;;
62268;SDS011;56517;51.634;5.566;2023-03-21T00:42:02;40.47;;;16.60;;
62268;SDS011;56517;51.634;5.566;2023-03-21T00:47:23;31.55;;;14.48;;
62268;SDS011;56517;51.634;5.566;2023-03-21T00:52:44;31.33;;;15.70;;
62268;SDS011;56517;51.634;5.566;2023-03-21T00:58:05;32.72;;;15.57;;
62268;SDS011;56517;51.634;5.566;2023-03-21T01:03:26;32.65;;;15.00;;
62268;SDS011;56517;51.634;5.566;2023-03-21T01:08:48;30.77;;;15.75;;
62268;SDS011;56517;51.634;5.566;2023-03-21T01:14:09;35.60;;;15.18;;
62268;SDS011;56517;51.634;5.566;2023-03-21T01:19:30;33.28;;;14.98;;
62268;SDS011;56517;51.634;5.566;2023-03-21T01:24:52;29.92;;;15.45;;
62268;SDS011;56517;51.634;5.566;2023-03-21T01:30:13;36.10;;;14.73;;
62268;SDS011;56517;51.634;5.566;2023-03-21T01:35:35;22.70;;;12.52;;
62268;SDS011;56517;51.634;5.566;2023-03-21T01:40:57;32.30;;;14.73;;
62268;SDS011;56517;51.634;5.566;2023-03-21T01:51:51;25.90;;;12.43;;
62268;SDS011;56517;51.634;5.566;2023-03-21T01:57:15;20.55;;;11.45;;
62268;SDS011;56517;51.634;5.566;2023-03-21T02:02:39;21.77;;;10.93;;
62268;SDS011;56517;51.634;5.566;2023-03-21T02:08:10;22.75;;;11.35;;
62268;SDS011;56517;51.634;5.566;2023-03-21T02:13:32;32.08;;;13.77;;
62268;SDS011;56517;51.634;5.566;2023-03-21T02:19:05;28.30;;;12.30;;
62268;SDS011;56517;51.634;5.566;2023-03-21T02:24:38;28.38;;;13.02;;
62268;SDS011;56517;51.634;5.566;2023-03-21T02:41:06;18.77;;;11.68;;
62268;SDS011;56517;51.634;5.566;2023-03-21T02:46:30;25.27;;;11.68;;
62268;SDS011;56517;51.634;5.566;2023-03-21T02:51:56;19.42;;;11.10;;
62268;SDS011;56517;51.634;5.566;2023-03-21T02:57:18;27.95;;;12.10;;
62268;SDS011;56517;51.634;5.566;2023-03-21T03:02:39;22.98;;;11.50;;
62268;SDS011;56517;51.634;5.566;2023-03-21T03:13:30;25.08;;;11.68;;
62268;SDS011;56517;51.634;5.566;2023-03-21T03:18:55;23.88;;;12.15;;
62268;SDS011;56517;51.634;5.566;2023-03-21T03:24:29;21.17;;;11.52;;
62268;SDS011;56517;51.634;5.566;2023-03-21T03:29:51;22.67;;;12.57;;
62268;SDS011;56517;51.634;5.566;2023-03-21T03:35:14;23.52;;;11.45;;
62268;SDS011;56517;51.634;5.566;2023-03-21T03:40:49;27.25;;;12.25;;
62268;SDS011;56517;51.634;5.566;2023-03-21T03:46:18;29.85;;;12.75;;
62268;SDS011;56517;51.634;5.566;2023-03-21T03:51:43;18.92;;;12.30;;
62268;SDS011;56517;51.634;5.566;2023-03-21T03:57:06;34.28;;;13.75;;
62268;SDS011;56517;51.634;5.566;2023-03-21T04:02:27;25.67;;;11.57;;
62268;SDS011;56517;51.634;5.566;2023-03-21T04:07:49;28.08;;;13.18;;
62268;SDS011;56517;51.634;5.566;2023-03-21T04:13:10;31.17;;;13.05;;
62268;SDS011;56517;51.634;5.566;2023-03-21T04:18:31;39.78;;;15.70;;
62268;SDS011;56517;51.634;5.566;2023-03-21T04:23:52;19.35;;;10.50;;
62268;SDS011;56517;51.634;5.566;2023-03-21T04:29:14;24.05;;;12.55;;
62268;SDS011;56517;51.634;5.566;2023-03-21T04:34:35;20.85;;;12.15;;
62268;SDS011;56517;51.634;5.566;2023-03-21T04:40:00;31.60;;;13.50;;
62268;SDS011;56517;51.634;5.566;2023-03-21T04:45:25;36.35;;;14.30;;
62268;SDS011;56517;51.634;5.566;2023-03-21T04:50:46;25.17;;;12.13;;
62268;SDS011;56517;51.634;5.566;2023-03-21T04:56:07;29.30;;;13.68;;
62268;SDS011;56517;51.634;5.566;2023-03-21T05:01:28;30.40;;;13.45;;
62268;SDS011;56517;51.634;5.566;2023-03-21T05:06:50;26.17;;;13.43;;
62268;SDS011;56517;51.634;5.566;2023-03-21T05:12:11;21.45;;;12.80;;
62268;SDS011;56517;51.634;5.566;2023-03-21T05:17:32;26.52;;;12.50;;
62268;SDS011;56517;51.634;5.566;2023-03-21T05:22:53;26.17;;;12.52;;
62268;SDS011;56517;51.634;5.566;2023-03-21T05:28:14;27.02;;;11.98;;
62268;SDS011;56517;51.634;5.566;2023-03-21T05:33:37;33.90;;;14.52;;
62268;SDS011;56517;51.634;5.566;2023-03-21T05:38:58;29.30;;;13.75;;
62268;SDS011;56517;51.634;5.566;2023-03-21T05:44:19;29.35;;;13.35;;
62268;SDS011;56517;51.634;5.566;2023-03-21T05:49:40;41.63;;;13.90;;
62268;SDS011;56517;51.634;5.566;2023-03-21T05:55:01;24.23;;;12.38;;
62268;SDS011;56517;51.634;5.566;2023-03-21T06:00:23;37.58;;;16.00;;
62268;SDS011;56517;51.634;5.566;2023-03-21T06:05:44;26.00;;;12.05;;
62268;SDS011;56517;51.634;5.566;2023-03-21T06:11:05;25.63;;;11.95;;
62268;SDS011;56517;51.634;5.566;2023-03-21T06:16:28;26.60;;;12.73;;
62268;SDS011;56517;51.634;5.566;2023-03-21T06:21:49;25.40;;;12.20;;
62268;SDS011;56517;51.634;5.566;2023-03-21T06:27:10;20.35;;;12.30;;
62268;SDS011;56517;51.634;5.566;2023-03-21T06:32:31;26.77;;;12.18;;
62268;SDS011;56517;51.634;5.566;2023-03-21T06:37:52;26.80;;;11.35;;
62268;SDS011;56517;51.634;5.566;2023-03-21T06:43:13;24.13;;;11.20;;
62268;SDS011;56517;51.634;5.566;2023-03-21T06:48:35;21.73;;;10.77;;
62268;SDS011;56517;51.634;5.566;2023-03-21T06:53:57;30.45;;;12.65;;
62268;SDS011;56517;51.634;5.566;2023-03-21T06:59:18;15.52;;;9.88;;
62268;SDS011;56517;51.634;5.566;2023-03-21T07:04:38;20.58;;;10.38;;
62268;SDS011;56517;51.634;5.566;2023-03-21T07:09:59;25.95;;;11.95;;
62268;SDS011;56517;51.634;5.566;2023-03-21T07:15:20;20.20;;;11.70;;
62268;SDS011;56517;51.634;5.566;2023-03-21T07:20:44;20.67;;;10.80;;
62268;SDS011;56517;51.634;5.566;2023-03-21T07:26:07;22.48;;;11.15;;
62268;SDS011;56517;51.634;5.566;2023-03-21T07:31:28;21.40;;;11.98;;
62268;SDS011;56517;51.634;5.566;2023-03-21T07:36:49;26.60;;;10.75;;
62268;SDS011;56517;51.634;5.566;2023-03-21T07:42:10;18.35;;;9.95;;
62268;SDS011;56517;51.634;5.566;2023-03-21T07:47:31;18.40;;;10.93;;
62268;SDS011;56517;51.634;5.566;2023-03-21T07:52:52;21.38;;;11.75;;
62268;SDS011;56517;51.634;5.566;2023-03-21T07:58:13;22.65;;;10.88;;
62268;SDS011;56517;51.634;5.566;2023-03-21T08:03:34;20.83;;;9.75;;
62268;SDS011;56517;51.634;5.566;2023-03-21T08:08:55;27.50;;;11.98;;
62268;SDS011;56517;51.634;5.566;2023-03-21T08:14:16;25.95;;;12.05;;
62268;SDS011;56517;51.634;5.566;2023-03-21T08:19:37;36.55;;;14.52;;
62268;SDS011;56517;51.634;5.566;2023-03-21T08:24:58;25.38;;;12.65;;
62268;SDS011;56517;51.634;5.566;2023-03-21T08:30:20;35.33;;;17.80;;
62268;SDS011;56517;51.634;5.566;2023-03-21T08:35:41;25.73;;;12.85;;
62268;SDS011;56517;51.634;5.566;2023-03-21T08:41:02;23.30;;;11.93;;
62268;SDS011;56517;51.634;5.566;2023-03-21T08:46:23;32.25;;;14.68;;
62268;SDS011;56517;51.634;5.566;2023-03-21T08:51:44;28.63;;;12.85;;
62268;SDS011;56517;51.634;5.566;2023-03-21T08:57:05;31.95;;;13.55;;
62268;SDS011;56517;51.634;5.566;2023-03-21T09:02:28;21.40;;;12.88;;
62268;SDS011;56517;51.634;5.566;2023-03-21T09:07:48;26.48;;;11.23;;
62268;SDS011;56517;51.634;5.566;2023-03-21T09:13:09;28.60;;;12.73;;
62268;SDS011;56517;51.634;5.566;2023-03-21T09:18:30;20.40;;;11.07;;
62268;SDS011;56517;51.634;5.566;2023-03-21T09:24:10;24.10;;;11.18;;
62268;SDS011;56517;51.634;5.566;2023-03-21T09:29:32;26.80;;;11.57;;
62268;SDS011;56517;51.634;5.566;2023-03-21T09:34:53;24.98;;;11.68;;
62268;SDS011;56517;51.634;5.566;2023-03-21T09:40:18;22.45;;;11.80;;
62268;SDS011;56517;51.634;5.566;2023-03-21T09:45:41;18.65;;;10.88;;
62268;SDS011;56517;51.634;5.566;2023-03-21T09:51:08;25.88;;;11.60;;
62268;SDS011;56517;51.634;5.566;2023-03-21T09:56:30;20.42;;;11.40;;
62268;SDS011;56517;51.634;5.566;2023-03-21T10:01:51;17.85;;;9.65;;
62268;SDS011;56517;51.634;5.566;2023-03-21T10:07:12;27.63;;;12.13;;
62268;SDS011;56517;51.634;5.566;2023-03-21T10:12:39;28.33;;;11.90;;
62268;SDS011;56517;51.634;5.566;2023-03-21T10:18:01;23.88;;;11.25;;
62268;SDS011;56517;51.634;5.566;2023-03-21T10:23:25;20.63;;;10.07;;
62268;SDS011;56517;51.634;5.566;2023-03-21T10:28:47;21.48;;;10.88;;
62268;SDS011;56517;51.634;5.566;2023-03-21T10:34:12;20.63;;;10.20;;
62268;SDS011;56517;51.634;5.566;2023-03-21T10:39:36;23.08;;;9.05;;
62268;SDS011;56517;51.634;5.566;2023-03-21T10:44:58;23.05;;;10.65;;
62268;SDS011;56517;51.634;5.566;2023-03-21T10:50:19;16.88;;;9.23;;
62268;SDS011;56517;51.634;5.566;2023-03-21T10:55:46;21.33;;;9.65;;
62268;SDS011;56517;51.634;5.566;2023-03-21T11:01:08;23.10;;;9.73;;
62268;SDS011;56517;51.634;5.566;2023-03-21T11:06:35;17.10;;;9.18;;
62268;SDS011;56517;51.634;5.566;2023-03-21T11:12:01;19.95;;;9.13;;
62268;SDS011;56517;51.634;5.566;2023-03-21T11:17:23;17.73;;;8.82;;
62268;SDS011;56517;51.634;5.566;2023-03-21T11:22:44;25.50;;;10.82;;
62268;SDS011;56517;51.634;5.566;2023-03-21T11:28:13;51.30;;;16.35;;
62268;SDS011;56517;51.634;5.566;2023-03-21T11:33:39;16.88;;;9.05;;
62268;SDS011;56517;51.634;5.566;2023-03-21T11:39:14;14.68;;;8.25;;
62268;SDS011;56517;51.634;5.566;2023-03-21T11:44:40;17.10;;;8.85;;
62268;SDS011;56517;51.634;5.566;2023-03-21T11:50:05;17.45;;;7.65;;
62268;SDS011;56517;51.634;5.566;2023-03-21T12:00:56;21.38;;;10.32;;
62268;SDS011;56517;51.634;5.566;2023-03-21T12:06:25;19.40;;;8.68;;
62268;SDS011;56517;51.634;5.566;2023-03-21T12:11:57;18.42;;;8.55;;
62268;SDS011;56517;51.634;5.566;2023-03-21T12:17:29;18.13;;;8.82;;
62268;SDS011;56517;51.634;5.566;2023-03-21T12:39:39;18.30;;;7.75;;
62268;SDS011;56517;51.634;5.566;2023-03-21T12:45:02;14.00;;;7.97;;
62268;SDS011;56517;51.634;5.566;2023-03-21T12:50:31;18.83;;;8.82;;
62268;SDS011;56517;51.634;5.566;2023-03-21T12:55:57;13.88;;;7.97;;
62268;SDS011;56517;51.634;5.566;2023-03-21T13:01:21;20.98;;;8.02;;
62268;SDS011;56517;51.634;5.566;2023-03-21T13:06:42;21.73;;;9.82;;
62268;SDS011;56517;51.634;5.566;2023-03-21T13:12:12;14.88;;;7.38;;
62268;SDS011;56517;51.634;5.566;2023-03-21T13:17:38;15.40;;;7.63;;
62268;SDS011;56517;51.634;5.566;2023-03-21T13:23:01;10.30;;;7.53;;
62268;SDS011;56517;51.634;5.566;2023-03-21T13:28:27;17.25;;;7.32;;
62268;SDS011;56517;51.634;5.566;2023-03-21T13:33:49;13.23;;;7.80;;
62268;SDS011;56517;51.634;5.566;2023-03-21T13:39:29;9.98;;;7.25;;
62268;SDS011;56517;51.634;5.566;2023-03-21T13:44:58;13.65;;;8.10;;
62268;SDS011;56517;51.634;5.566;2023-03-21T13:50:21;18.60;;;8.32;;
62268;SDS011;56517;51.634;5.566;2023-03-21T13:55:44;20.35;;;9.25;;
62268;SDS011;56517;51.634;5.566;2023-03-21T14:12:16;21.15;;;10.07;;
62268;SDS011;56517;51.634;5.566;2023-03-21T14:17:38;20.45;;;8.38;;
62268;SDS011;56517;51.634;5.566;2023-03-21T14:23:12;10.85;;;6.97;;
62268;SDS011;56517;51.634;5.566;2023-03-21T14:28:33;12.57;;;6.60;;
62268;SDS011;56517;51.634;5.566;2023-03-21T14:33:56;17.98;;;8.95;;
62268;SDS011;56517;51.634;5.566;2023-03-21T14:39:21;12.63;;;7.22;;
62268;SDS011;56517;51.634;5.566;2023-03-21T14:44:52;19.75;;;9.52;;
62268;SDS011;56517;51.634;5.566;2023-03-21T14:50:19;19.65;;;8.98;;
62268;SDS011;56517;51.634;5.566;2023-03-21T14:55:45;25.30;;;9.27;;
62268;SDS011;56517;51.634;5.566;2023-03-21T15:01:11;19.15;;;8.45;;
62268;SDS011;56517;51.634;5.566;2023-03-21T15:06:46;16.77;;;8.38;;
62268;SDS011;56517;51.634;5.566;2023-03-21T15:12:07;19.85;;;8.55;;
62268;SDS011;56517;51.634;5.566;2023-03-21T15:17:29;21.20;;;8.02;;
62268;SDS011;56517;51.634;5.566;2023-03-21T15:22:58;29.35;;;9.93;;
62268;SDS011;56517;51.634;5.566;2023-03-21T15:28:21;18.45;;;8.35;;
62268;SDS011;56517;51.634;5.566;2023-03-21T15:33:45;12.88;;;7.25;;
62268;SDS011;56517;51.634;5.566;2023-03-21T15:39:07;17.02;;;7.35;;
62268;SDS011;56517;51.634;5.566;2023-03-21T15:44:32;16.67;;;9.80;;
62268;SDS011;56517;51.634;5.566;2023-03-21T15:49:53;14.55;;;5.97;;
62268;SDS011;56517;51.634;5.566;2023-03-21T15:55:16;9.35;;;6.18;;
62268;SDS011;56517;51.634;5.566;2023-03-21T16:00:41;13.60;;;7.15;;
62268;SDS011;56517;51.634;5.566;2023-03-21T16:06:04;10.95;;;7.25;;
62268;SDS011;56517;51.634;5.566;2023-03-21T16:11:26;21.50;;;7.95;;
62268;SDS011;56517;51.634;5.566;2023-03-21T16:16:47;13.63;;;6.95;;
62268;SDS011;56517;51.634;5.566;2023-03-21T16:22:08;11.35;;;6.53;;
62268;SDS011;56517;51.634;5.566;2023-03-21T16:27:30;10.45;;;5.90;;
62268;SDS011;56517;51.634;5.566;2023-03-21T16:32:51;11.13;;;6.53;;
62268;SDS011;56517;51.634;5.566;2023-03-21T16:38:12;12.95;;;7.03;;
62268;SDS011;56517;51.634;5.566;2023-03-21T16:43:33;13.30;;;7.45;;
62268;SDS011;56517;51.634;5.566;2023-03-21T16:48:55;14.55;;;7.15;;
62268;SDS011;56517;51.634;5.566;2023-03-21T16:54:16;15.82;;;8.52;;
62268;SDS011;56517;51.634;5.566;2023-03-21T16:59:37;14.57;;;7.75;;
62268;SDS011;56517;51.634;5.566;2023-03-21T17:05:00;12.82;;;8.35;;
62268;SDS011;56517;51.634;5.566;2023-03-21T17:10:23;13.90;;;8.60;;
62268;SDS011;56517;51.634;5.566;2023-03-21T17:15:44;14.85;;;8.45;;
62268;SDS011;56517;51.634;5.566;2023-03-21T17:21:10;16.63;;;8.35;;
62268;SDS011;56517;51.634;5.566;2023-03-21T17:26:31;16.80;;;9.77;;
62268;SDS011;56517;51.634;5.566;2023-03-21T17:31:52;12.98;;;7.93;;
62268;SDS011;56517;51.634;5.566;2023-03-21T17:37:13;10.82;;;8.23;;
62268;SDS011;56517;51.634;5.566;2023-03-21T17:42:34;15.43;;;9.05;;
62268;SDS011;56517;51.634;5.566;2023-03-21T17:47:55;13.43;;;7.78;;
62268;SDS011;56517;51.634;5.566;2023-03-21T17:53:16;15.35;;;8.02;;
62268;SDS011;56517;51.634;5.566;2023-03-21T17:58:37;11.98;;;8.15;;
62268;SDS011;56517;51.634;5.566;2023-03-21T18:03:57;15.57;;;8.63;;
62268;SDS011;56517;51.634;5.566;2023-03-21T18:09:18;22.73;;;10.40;;
62268;SDS011;56517;51.634;5.566;2023-03-21T18:14:40;13.63;;;8.73;;
62268;SDS011;56517;51.634;5.566;2023-03-21T18:20:01;41.72;;;16.15;;
62268;SDS011;56517;51.634;5.566;2023-03-21T18:25:23;19.48;;;10.15;;
62268;SDS011;56517;51.634;5.566;2023-03-21T18:30:44;18.92;;;10.65;;
62268;SDS011;56517;51.634;5.566;2023-03-21T18:36:09;16.35;;;9.27;;
62268;SDS011;56517;51.634;5.566;2023-03-21T18:41:31;15.85;;;9.27;;
62268;SDS011;56517;51.634;5.566;2023-03-21T18:46:52;13.65;;;8.35;;
62268;SDS011;56517;51.634;5.566;2023-03-21T18:52:13;11.13;;;7.22;;
62268;SDS011;56517;51.634;5.566;2023-03-21T18:57:34;13.13;;;8.52;;
62268;SDS011;56517;51.634;5.566;2023-03-21T19:02:55;13.63;;;8.43;;
62268;SDS011;56517;51.634;5.566;2023-03-21T19:08:17;12.63;;;8.02;;
62268;SDS011;56517;51.634;5.566;2023-03-21T19:13:37;12.52;;;8.02;;
62268;SDS011;56517;51.634;5.566;2023-03-21T19:18:58;17.80;;;9.93;;
62268;SDS011;56517;51.634;5.566;2023-03-21T19:24:20;15.45;;;8.30;;
62268;SDS011;56517;51.634;5.566;2023-03-21T19:29:41;13.77;;;8.10;;
62268;SDS011;56517;51.634;5.566;2023-03-21T19:35:02;19.95;;;8.93;;
62268;SDS011;56517;51.634;5.566;2023-03-21T19:40:23;20.15;;;9.70;;
62268;SDS011;56517;51.634;5.566;2023-03-21T19:45:47;15.90;;;8.98;;
62268;SDS011;56517;51.634;5.566;2023-03-21T19:51:08;22.95;;;10.55;;
62268;SDS011;56517;51.634;5.566;2023-03-21T19:56:29;29.23;;;12.43;;
62268;SDS011;56517;51.634;5.566;2023-03-21T20:01:51;26.92;;;11.43;;
62268;SDS011;56517;51.634;5.566;2023-03-21T20:07:12;23.98;;;10.95;;
62268;SDS011;56517;51.634;5.566;2023-03-21T20:12:33;23.33;;;11.82;;
62268;SDS011;56517;51.634;5.566;2023-03-21T20:17:54;19.25;;;11.43;;
62268;SDS011;56517;51.634;5.566;2023-03-21T20:23:15;27.30;;;12.18;;
62268;SDS011;56517;51.634;5.566;2023-03-21T20:28:36;26.88;;;12.68;;
62268;SDS011;56517;51.634;5.566;2023-03-21T20:33:57;26.45;;;11.43;;
62268;SDS011;56517;51.634;5.566;2023-03-21T20:39:17;27.70;;;14.05;;
62268;SDS011;56517;51.634;5.566;2023-03-21T20:44:38;20.75;;;11.82;;
62268;SDS011;56517;51.634;5.566;2023-03-21T20:50:01;22.65;;;11.40;;
62268;SDS011;56517;51.634;5.566;2023-03-21T20:55:22;20.98;;;12.23;;
62268;SDS011;56517;51.634;5.566;2023-03-21T21:00:44;27.45;;;12.63;;
62268;SDS011;56517;51.634;5.566;2023-03-21T21:06:11;19.15;;;10.88;;
62268;SDS011;56517;51.634;5.566;2023-03-21T21:11:33;27.20;;;13.15;;
62268;SDS011;56517;51.634;5.566;2023-03-21T21:16:53;20.83;;;11.30;;
62268;SDS011;56517;51.634;5.566;2023-03-21T21:22:15;22.73;;;12.30;;
62268;SDS011;56517;51.634;5.566;2023-03-21T21:27:36;20.02;;;10.88;;
62268;SDS011;56517;51.634;5.566;2023-03-21T21:32:57;30.30;;;13.60;;
62268;SDS011;56517;51.634;5.566;2023-03-21T21:38:20;25.80;;;13.30;;
62268;SDS011;56517;51.634;5.566;2023-03-21T21:43:42;29.98;;;13.88;;
62268;SDS011;56517;51.634;5.566;2023-03-21T21:49:03;28.40;;;12.98;;
62268;SDS011;56517;51.634;5.566;2023-03-21T21:54:24;22.65;;;11.82;;
62268;SDS011;56517;51.634;5.566;2023-03-21T21:59:45;15.20;;;9.00;;
62268;SDS011;56517;51.634;5.566;2023-03-21T22:05:06;20.95;;;11.02;;
62268;SDS011;56517;51.634;5.566;2023-03-21T22:10:29;22.73;;;10.48;;
62268;SDS011;56517;51.634;5.566;2023-03-21T22:15:50;21.00;;;10.25;;
62268;SDS011;56517;51.634;5.566;2023-03-21T22:21:11;26.63;;;10.82;;
62268;SDS011;56517;51.634;5.566;2023-03-21T22:26:32;24.00;;;10.48;;
62268;SDS011;56517;51.634;5.566;2023-03-21T22:31:53;24.50;;;11.20;;
62268;SDS011;56517;51.634;5.566;2023-03-21T22:37:14;23.45;;;10.02;;
62268;SDS011;56517;51.634;5.566;2023-03-21T22:42:35;13.48;;;7.82;;
62268;SDS011;56517;51.634;5.566;2023-03-21T22:47:56;27.38;;;10.23;;
62268;SDS011;56517;51.634;5.566;2023-03-21T22:53:19;20.92;;;8.60;;
62268;SDS011;56517;51.634;5.566;2023-03-21T22:58:40;18.45;;;8.60;;
62268;SDS011;56517;51.634;5.566;2023-03-21T23:04:01;26.73;;;9.35;;
62268;SDS011;56517;51.634;5.566;2023-03-21T23:09:22;21.65;;;9.73;;
62268;SDS011;56517;51.634;5.566;2023-03-21T23:14:43;18.60;;;8.02;;
62268;SDS011;56517;51.634;5.566;2023-03-21T23:20:04;21.27;;;8.70;;
62268;SDS011;56517;51.634;5.566;2023-03-21T23:25:27;25.88;;;10.25;;
62268;SDS011;56517;51.634;5.566;2023-03-21T23:30:53;24.38;;;9.10;;
62268;SDS011;56517;51.634;5.566;2023-03-21T23:36:15;18.08;;;8.15;;
62268;SDS011;56517;51.634;5.566;2023-03-21T23:41:36;19.35;;;8.60;;
62268;SDS011;56517;51.634;5.566;2023-03-21T23:46:57;25.23;;;10.27;;
62268;SDS011;56517;51.634;5.566;2023-03-21T23:52:18;23.75;;;10.10;;
62268;SDS011;56517;51.634;5.566;2023-03-21T23:57:39;30.73;;;11.95;;
